Boaz, AL (35956)

4:21 PM CDT on August 30, 2015 (GMT -0500)
Double Bridges | | Change Station
CLOSE
Current Station
Personal Weather Station
Location: Boaz, AL
Elevation: 1083 ft
Nearby Weather Stations

Elev 1083 ft 34.22 °N, 86.13 °W | Updated 6 minutes ago

Overcast
Overcast
74.1 °F
Feels Like 74 °F
N
2.2
Wind Variable Wind from ENE

Today
High -- | Low -- °F
--% Chance of Precip.
Yesterday
High -- | Low -- °F
Precip. -- in
6:16 AM 7:13 PM
Full, 98% visible
Pressure 30.09 in
Visibility 10.0 miles
Clouds Scattered Clouds 1500 ft
Mostly Cloudy 2500 ft
Overcast 3300 ft
Heat Index 74 °F
Dew Point 68 °F
Humidity 82%
Rainfall 0.36 in
Snow Depth Not available.
UV 2 out of 12
Pollen 8.50 out of 12
Air Quality Not available.
Flu Activity Not available.
METAR K8A0 302055Z AUTO 00000KT 10SM SCT015 BKN025 OVC033 20/20 A3009 RMK AO2 P0004
Pressure 30.09 in
Visibility 10.0 miles
Clouds Scattered Clouds 1500 ft
Mostly Cloudy 2500 ft
Overcast 3300 ft
Heat Index 74 °F
Dew Point 68 °F
Humidity 82%
Rainfall 0.36 in
Snow Depth Not available.
UV 2 out of 12
Pollen 8.50 out of 12
Air Quality Not available.
Flu Activity Not available.
METAR K8A0 302055Z AUTO 00000KT 10SM SCT015 BKN025 OVC033 20/20 A3009 RMK AO2 P0004

10-Day Weather Forecast

×

Almanac

Astronomy

Aug. 30, 2015 Rise Set
Actual Time
Civil Twilight
Nautical Twilight
Astronomical Twilight
Moon
Length of Visible Light
Length of Day
Tomorrow will be .
, % of the Moon is Illuminated

Today's Extremes

State Highs State Lows

Community

WunderPhotos

Upload Photos

1,851,063 photos uploaded!

WunderBlogs® & News

Nearby

Air Quality

  Air Quality AQ Index Pollutant
Not available.

Snow Depth

Station Depth Elevation

Earthquake Activity

City Distance Mag. Time & Date
Minimum magnitude displayed is 2.5.

Coastal Water Temperatures

Place Temperature

Stations

Nearby Weather Stations

Station Location Temp. Windchill Dew Point Humidity Wind Precip. Elev Updated Type